createdAt,value
2023-01-29T00:00:48.633Z,101056.03
2023-01-29T00:06:13.162Z,101043.33
2023-01-29T00:11:20.683Z,101038.58
2023-01-29T00:16:24.573Z,101039.08
2023-01-29T00:21:27.982Z,101030.59
2023-01-29T00:26:30.995Z,101026.46
2023-01-29T00:31:34.991Z,101027.59
2023-01-29T00:36:38.223Z,101032.38
2023-01-29T00:41:59.881Z,101029.83
2023-01-29T00:47:03.379Z,101027.66
2023-01-29T00:52:24.406Z,101029.16
2023-01-29T00:57:30.446Z,101030.09
2023-01-29T01:02:52.014Z,101031.92
2023-01-29T01:07:58.019Z,101032.54
2023-01-29T01:13:06.832Z,101024.92
2023-01-29T01:18:10.135Z,101015.39
2023-01-29T01:23:13.243Z,101009.02
2023-01-29T01:28:16.449Z,101002.31
2023-01-29T01:33:20.580Z,101003.59
2023-01-29T01:38:23.682Z,101015.60
2023-01-29T01:43:26.787Z,101022.13
2023-01-29T01:48:29.897Z,101020.69
2023-01-29T01:53:39.455Z,101014.31
2023-01-29T01:58:50.955Z,101014.61
2023-01-29T02:04:24.061Z,101008.47
2023-01-29T02:09:36.101Z,100994.38
2023-01-29T02:14:41.558Z,100989.73
2023-01-29T02:19:50.376Z,100975.27
2023-01-29T02:24:59.220Z,100959.41
2023-01-29T02:30:31.815Z,100955.60
2023-01-29T02:35:47.009Z,100944.65
2023-01-29T02:41:12.650Z,100932.65
2023-01-29T02:46:21.474Z,100929.84
2023-01-29T02:51:37.994Z,100938.75
2023-01-29T02:56:52.060Z,100939.45
2023-01-29T03:02:01.396Z,100936.53
2023-01-29T03:07:10.865Z,100927.80
2023-01-29T03:12:34.271Z,100924.85
2023-01-29T03:17:44.085Z,100921.60
2023-01-29T03:22:53.254Z,100911.66
2023-01-29T03:28:20.730Z,100906.58
2023-01-29T03:33:26.569Z,100908.83
2023-01-29T03:38:32.520Z,100905.66
2023-01-29T03:43:46.134Z,100898.48
2023-01-29T03:49:10.119Z,100899.77
2023-01-29T03:54:29.504Z,100895.58
2023-01-29T03:59:58.314Z,100900.14
2023-01-29T04:05:12.168Z,100900.14
2023-01-29T04:10:21.603Z,100885.23
2023-01-29T04:15:29.010Z,100869.06
2023-01-29T04:20:33.265Z,100858.14
2023-01-29T04:25:46.406Z,100860.59
2023-01-29T04:31:09.434Z,100851.67
2023-01-29T04:36:38.491Z,100847.61
2023-01-29T04:42:23.169Z,100838.13
2023-01-29T04:47:36.099Z,100827.33
2023-01-29T04:52:50.176Z,100825.54
2023-01-29T04:58:05.560Z,100828.38
2023-01-29T05:03:11.822Z,100827.98
2023-01-29T05:08:19.627Z,100824.54
2023-01-29T05:13:24.601Z,100829.73
2023-01-29T05:18:29.520Z,100832.85
2023-01-29T05:23:32.559Z,100823.66
2023-01-29T05:28:35.657Z,100812.08
2023-01-29T05:33:38.777Z,100812.91
2023-01-29T05:38:41.871Z,100816.94
2023-01-29T05:43:45.179Z,100825.20
2023-01-29T05:48:48.288Z,100828.10
2023-01-29T05:53:51.301Z,100813.31
2023-01-29T05:58:54.906Z,100802.02
2023-01-29T06:03:57.910Z,100805.14
2023-01-29T06:09:01.016Z,100800.15
2023-01-29T06:14:04.223Z,100801.27
2023-01-29T06:19:07.333Z,100804.85
2023-01-29T06:24:10.563Z,100795.98
2023-01-29T06:29:13.542Z,100795.58
2023-01-29T06:34:16.959Z,100804.84
2023-01-29T06:39:20.056Z,100807.73
2023-01-29T06:44:23.160Z,100800.80
2023-01-29T06:49:26.181Z,100803.66
2023-01-29T06:54:29.891Z,100802.05
2023-01-29T06:59:33.609Z,100792.27
2023-01-29T07:04:38.144Z,100795.27
2023-01-29T07:09:43.203Z,100798.09
2023-01-29T07:14:46.713Z,100794.96
2023-01-29T07:19:50.164Z,100798.04
2023-01-29T07:24:53.261Z,100802.45
2023-01-29T07:29:56.229Z,100801.59
2023-01-29T07:34:59.244Z,100793.35
2023-01-29T07:40:02.685Z,100783.84
2023-01-29T07:45:08.671Z,100767.34
2023-01-29T07:50:12.546Z,100758.16
2023-01-29T07:55:16.726Z,100758.26
2023-01-29T08:00:20.391Z,100753.08
2023-01-29T08:05:23.544Z,100748.48
2023-01-29T08:10:27.038Z,100747.23
2023-01-29T08:15:30.975Z,100743.98
2023-01-29T08:20:34.144Z,100749.27
2023-01-29T08:25:37.404Z,100741.79
2023-01-29T08:30:40.708Z,100731.55
2023-01-29T08:35:50.058Z,100721.97
2023-01-29T08:40:53.117Z,100719.98
2023-01-29T08:45:57.122Z,100713.02
2023-01-29T08:51:03.062Z,100708.13
2023-01-29T08:56:07.498Z,100706.33
2023-01-29T09:01:12.859Z,100704.93
2023-01-29T09:06:16.280Z,100703.39
2023-01-29T09:11:19.596Z,100705.43
2023-01-29T09:16:22.677Z,100716.12
2023-01-29T09:21:25.639Z,100720.01
2023-01-29T09:26:28.773Z,100724.29
2023-01-29T09:31:32.660Z,100719.36
2023-01-29T09:36:35.779Z,100708.80
2023-01-29T09:41:45.228Z,100704.19
2023-01-29T09:46:53.973Z,100700.31
2023-01-29T09:52:05.960Z,100696.73
2023-01-29T09:57:15.774Z,100692.36
2023-01-29T10:02:19.101Z,100682.36
2023-01-29T10:08:00.286Z,100679.08
2023-01-29T10:13:08.277Z,100671.23
2023-01-29T10:18:30.532Z,100661.39
2023-01-29T10:23:36.502Z,100660.03
2023-01-29T10:28:50.862Z,100650.73
2023-01-29T10:34:04.477Z,100646.99
2023-01-29T10:39:17.937Z,100636.61
2023-01-29T10:44:29.712Z,100630.23
2023-01-29T10:49:48.461Z,100613.36
2023-01-29T10:54:58.315Z,100608.52
2023-01-29T11:00:18.706Z,100598.27
2023-01-29T11:05:38.378Z,100598.52
2023-01-29T11:10:49.417Z,100592.25
2023-01-29T11:15:53.805Z,100584.16
2023-01-29T11:21:03.503Z,100575.13
2023-01-29T11:26:11.242Z,100569.86
2023-01-29T11:31:39.258Z,100562.69
2023-01-29T11:36:43.639Z,100557.50
2023-01-29T11:41:55.858Z,100546.86
2023-01-29T11:47:21.392Z,100554.41
2023-01-29T11:52:34.428Z,100543.24
2023-01-29T11:57:43.583Z,100539.27
2023-01-29T12:02:53.954Z,100538.80
2023-01-29T12:08:02.933Z,100521.35
2023-01-29T12:13:06.004Z,100517.06
2023-01-29T12:18:09.419Z,100511.39
2023-01-29T12:23:23.284Z,100509.88
2023-01-29T12:28:37.434Z,100504.77
2023-01-29T12:34:16.205Z,100499.95
2023-01-29T12:39:20.515Z,100502.44
2023-01-29T12:44:43.888Z,100503.02
2023-01-29T12:49:56.719Z,100502.12
2023-01-29T12:55:08.684Z,100521.17
2023-01-29T13:00:34.921Z,100529.23
2023-01-29T13:06:01.646Z,100523.60
2023-01-29T13:11:20.216Z,100508.67
2023-01-29T13:16:29.766Z,100496.20
2023-01-29T13:21:44.107Z,100481.55
2023-01-29T13:26:49.301Z,100471.55
2023-01-29T13:31:55.976Z,100465.67
2023-01-29T13:37:03.489Z,100465.45
2023-01-29T13:42:19.185Z,100458.22
2023-01-29T13:47:38.622Z,100457.13
2023-01-29T13:52:46.593Z,100449.27
2023-01-29T13:57:55.952Z,100448.48
2023-01-29T14:03:10.089Z,100446.75
2023-01-29T14:08:16.035Z,100441.53
2023-01-29T14:13:24.001Z,100442.14
2023-01-29T14:18:30.169Z,100447.31
2023-01-29T14:23:42.700Z,100441.88
2023-01-29T14:29:16.469Z,100437.38
2023-01-29T14:34:28.958Z,100440.83
2023-01-29T14:39:37.996Z,100432.11
2023-01-29T14:44:46.120Z,100428.71
2023-01-29T14:49:49.635Z,100427.16
2023-01-29T14:54:55.766Z,100431.57
2023-01-29T15:00:06.628Z,100443.67
2023-01-29T15:05:21.172Z,100438.86
2023-01-29T15:10:47.419Z,100438.58
2023-01-29T15:16:07.809Z,100436.61
2023-01-29T15:21:14.076Z,100435.65
2023-01-29T15:26:26.685Z,100438.38
2023-01-29T15:31:32.583Z,100417.52
2023-01-29T15:36:37.724Z,100402.45
2023-01-29T15:41:41.286Z,100393.89
2023-01-29T15:46:50.840Z,100389.20
2023-01-29T15:52:00.829Z,100390.50
2023-01-29T15:57:04.734Z,100392.44
2023-01-29T16:02:36.035Z,100392.25
2023-01-29T16:07:40.582Z,100392.90
2023-01-29T16:12:44.256Z,100380.93
2023-01-29T16:17:48.510Z,100377.59
2023-01-29T16:22:53.759Z,100367.04
2023-01-29T16:27:59.119Z,100349.48
2023-01-29T16:33:05.551Z,100335.23
2023-01-29T16:38:28.458Z,100330.10
2023-01-29T16:43:42.078Z,100328.13
2023-01-29T16:48:46.442Z,100320.34
2023-01-29T16:54:18.599Z,100312.63
2023-01-29T16:59:41.607Z,100318.79
2023-01-29T17:04:47.333Z,100322.69
2023-01-29T17:09:55.100Z,100330.76
2023-01-29T17:15:01.462Z,100330.09
2023-01-29T17:20:16.894Z,100330.12
2023-01-29T17:25:22.590Z,100325.23
2023-01-29T17:30:30.565Z,100331.02
2023-01-29T17:35:36.008Z,100329.45
2023-01-29T17:40:51.813Z,100323.45
2023-01-29T17:45:55.599Z,100311.90
2023-01-29T17:51:03.876Z,100299.09
2023-01-29T17:56:08.450Z,100289.98
2023-01-29T18:01:12.040Z,100279.32
2023-01-29T18:06:34.581Z,100274.14
2023-01-29T18:11:40.034Z,100266.48
2023-01-29T18:16:44.595Z,100260.83
2023-01-29T18:21:48.720Z,100251.35
2023-01-29T18:26:52.539Z,100243.45
2023-01-29T18:31:56.327Z,100235.71
2023-01-29T18:37:00.876Z,100226.38
2023-01-29T18:42:04.728Z,100214.67
2023-01-29T18:47:07.827Z,100203.73
2023-01-29T18:52:12.771Z,100194.60
2023-01-29T18:58:28.904Z,100186.52
2023-01-29T19:02:43.350Z,100169.08
2023-01-29T19:07:48.104Z,100149.82
2023-01-29T19:12:53.513Z,100141.62
2023-01-29T19:17:57.289Z,100140.63
2023-01-29T19:23:01.317Z,100137.15
2023-01-29T19:28:07.861Z,100133.79
2023-01-29T19:33:11.730Z,100131.60
2023-01-29T19:38:19.638Z,100123.84
2023-01-29T19:43:23.356Z,100118.84
2023-01-29T19:48:27.281Z,100111.35
2023-01-29T19:53:31.874Z,100101.95
2023-01-29T19:58:36.324Z,100099.61
2023-01-29T20:03:39.671Z,100102.91
2023-01-29T20:08:48.854Z,100090.76
2023-01-29T20:13:52.963Z,100073.44
2023-01-29T20:19:14.029Z,100070.15
2023-01-29T20:24:19.332Z,100069.64
2023-01-29T20:29:22.854Z,100065.67
2023-01-29T20:34:26.635Z,100058.73
2023-01-29T20:39:31.723Z,100044.69
2023-01-29T20:44:35.851Z,100032.23
2023-01-29T20:49:39.569Z,100015.59
2023-01-29T20:54:43.493Z,100001.33
2023-01-29T20:59:47.017Z,99994.45
2023-01-29T21:04:50.112Z,99981.92
2023-01-29T21:09:54.054Z,99970.42
2023-01-29T21:14:57.430Z,99967.02
2023-01-29T21:20:01.000Z,99956.56
2023-01-29T21:25:06.017Z,99940.66
2023-01-29T21:30:11.596Z,99943.02
2023-01-29T21:35:16.652Z,99931.77
2023-01-29T21:40:22.203Z,99929.39
2023-01-29T21:45:25.546Z,99919.03
2023-01-29T21:50:30.059Z,99910.30
2023-01-29T21:55:34.397Z,99899.61
2023-01-29T22:00:38.327Z,99889.85
2023-01-29T22:05:41.924Z,99881.86
2023-01-29T22:10:45.131Z,99873.05
2023-01-29T22:15:48.865Z,99861.22
2023-01-29T22:20:55.688Z,99864.15
2023-01-29T22:26:06.964Z,99853.57
2023-01-29T22:31:10.681Z,99840.91
2023-01-29T22:36:13.989Z,99831.80
2023-01-29T22:41:17.603Z,99827.43
2023-01-29T22:46:21.027Z,99819.85
2023-01-29T22:51:24.733Z,99810.67
2023-01-29T22:56:30.884Z,99798.84
2023-01-29T23:01:34.243Z,99784.79
2023-01-29T23:06:37.828Z,99776.17
2023-01-29T23:11:40.931Z,99768.91
2023-01-29T23:16:44.245Z,99754.10
2023-01-29T23:21:47.354Z,99733.90
2023-01-29T23:27:09.202Z,99724.59
2023-01-29T23:32:15.949Z,99708.80
2023-01-29T23:37:19.094Z,99701.21
2023-01-29T23:42:22.301Z,99682.91
2023-01-29T23:47:25.307Z,99668.36
2023-01-29T23:52:28.512Z,99654.21
2023-01-29T23:57:31.722Z,99637.73
